Time;durP1;ratioP1;P1;durP2;ratioP2;P2;SDS_P1;SDS_P2;PMS_P1;PMS_P2;Temp;Humidity;BMP_temperature;BMP_pressure;BME280_temperature;BME280_humidity;BME280_pressure;Samples;Min_cycle;Max_cycle;Signal;HPM_P1;HPM_P2
2022/05/25 00:00:18;;;;;;;4.38;2.75;;;;;;;12.10;100.00;99107.94;5071167;28;20208;-78
2022/05/25 00:02:45;;;;;;;2.78;2.08;;;;;;;12.06;100.00;99106.44;5071734;28;20266;-79
2022/05/25 00:05:15;;;;;;;4.93;2.55;;;;;;;11.94;100.00;99103.75;5071380;28;20185;-78
2022/05/25 00:07:42;;;;;;;3.00;2.60;;;;;;;11.97;100.00;99103.56;5071060;28;20281;-79
2022/05/25 00:10:09;;;;;;;4.57;2.85;;;;;;;11.95;100.00;99100.09;5071599;28;20207;-79
2022/05/25 00:12:36;;;;;;;5.10;2.60;;;;;;;11.97;100.00;99099.00;5071241;28;20207;-79
2022/05/25 00:15:05;;;;;;;7.15;2.80;;;;;;;12.01;100.00;99102.38;5071222;28;20204;-79
2022/05/25 00:17:32;;;;;;;3.92;2.65;;;;;;;11.99;100.00;99098.91;5070937;28;20290;-79
2022/05/25 00:20:00;;;;;;;2.97;2.10;;;;;;;12.01;100.00;99100.53;5071267;28;20197;-79
2022/05/25 00:22:28;;;;;;;3.53;2.92;;;;;;;12.10;100.00;99107.94;5071299;28;20302;-79
2022/05/25 00:24:57;;;;;;;4.40;2.80;;;;;;;11.91;100.00;99117.47;5071210;28;20192;-78
2022/05/25 00:27:24;;;;;;;4.05;3.47;;;;;;;11.82;100.00;99103.63;5070830;28;20647;-78
2022/05/25 00:29:50;;;;;;;3.88;3.47;;;;;;;11.86;100.00;99106.97;5071272;28;20199;-79
2022/05/25 00:32:18;;;;;;;8.23;3.47;;;;;;;11.86;100.00;99113.22;5074356;28;20224;-78
2022/05/25 00:34:45;;;;;;;4.43;3.45;;;;;;;11.95;100.00;99110.88;5074675;28;20185;-78
2022/05/25 00:37:12;;;;;;;4.50;3.30;;;;;;;11.96;100.00;99112.59;5074658;28;20283;-78
2022/05/25 00:39:40;;;;;;;3.30;2.75;;;;;;;11.96;100.00;99113.47;5073824;28;20635;-79
2022/05/25 00:42:07;;;;;;;5.43;2.40;;;;;;;11.90;100.00;99105.81;5074138;28;20197;-79
2022/05/25 00:44:34;;;;;;;6.88;2.38;;;;;;;11.69;100.00;99116.28;5074181;28;20185;-78
2022/05/25 00:47:01;;;;;;;3.13;1.88;;;;;;;11.66;100.00;99111.06;5074534;28;20547;-79
2022/05/25 00:49:30;;;;;;;2.03;1.83;;;;;;;11.64;100.00;99121.97;5073459;28;20199;-79
2022/05/25 00:52:03;;;;;;;4.05;2.35;;;;;;;11.68;100.00;99120.78;5074030;28;20339;-79
2022/05/25 00:54:33;;;;;;;3.08;2.00;;;;;;;11.78;100.00;99115.63;5074470;28;20612;-79
2022/05/25 00:57:10;;;;;;;4.68;2.50;;;;;;;12.00;100.00;99122.22;5073983;28;20192;-79
2022/05/25 00:59:47;;;;;;;4.45;2.15;;;;;;;11.95;100.00;99127.94;5074225;28;20185;-78
2022/05/25 01:02:13;;;;;;;3.38;2.30;;;;;;;12.01;100.00;99116.72;5073906;28;20614;-79
2022/05/25 01:04:41;;;;;;;3.90;2.00;;;;;;;12.00;100.00;99130.31;5073715;28;20181;-78
2022/05/25 01:07:25;;;;;;;2.40;1.92;;;;;;;12.11;100.00;99125.00;5074146;28;20596;-78
2022/05/25 01:10:02;;;;;;;4.65;2.80;;;;;;;12.19;100.00;99127.13;5074028;28;20721;-78
2022/05/25 01:12:52;;;;;;;3.85;2.55;;;;;;;12.28;100.00;99132.75;5073868;28;20219;-79
2022/05/25 01:15:27;;;;;;;4.05;2.00;;;;;;;12.27;100.00;99132.84;5074019;28;20542;-79
2022/05/25 01:18:12;;;;;;;2.67;2.35;;;;;;;12.43;100.00;99122.66;5075559;28;20652;-79
2022/05/25 01:20:46;;;;;;;8.23;2.58;;;;;;;12.37;100.00;99141.13;5074892;28;20198;-78
2022/05/25 01:23:47;;;;;;;6.07;2.78;;;;;;;12.19;100.00;99144.22;5073796;28;20182;-78
2022/05/25 01:26:33;;;;;;;4.05;2.38;;;;;;;12.16;100.00;99133.63;5073334;28;20276;-79
2022/05/25 01:29:22;;;;;;;2.67;2.10;;;;;;;11.88;100.00;99145.53;5073658;28;20185;-78
2022/05/25 01:31:58;;;;;;;5.65;2.75;;;;;;;11.55;100.00;99146.88;5073385;28;20204;-78
2022/05/25 01:34:34;;;;;;;2.70;2.20;;;;;;;11.63;100.00;99139.13;5073637;28;20534;-78
2022/05/25 01:37:08;;;;;;;4.72;1.90;;;;;;;11.76;100.00;99144.53;5072795;28;20275;-78
2022/05/25 01:39:40;;;;;;;4.30;2.40;;;;;;;11.79;100.00;99155.09;5073415;28;20620;-78
2022/05/25 01:42:13;;;;;;;6.00;2.15;;;;;;;11.80;100.00;99153.25;5072303;28;20196;-79
2022/05/25 01:44:43;;;;;;;3.15;2.05;;;;;;;11.79;100.00;99152.41;5073269;28;20641;-78
2022/05/25 01:47:12;;;;;;;3.83;2.35;;;;;;;11.88;100.00;99159.88;5072742;28;20189;-79
2022/05/25 01:49:44;;;;;;;3.38;2.10;;;;;;;11.88;100.00;99154.47;5073256;28;20270;-79
2022/05/25 01:52:17;;;;;;;4.45;2.47;;;;;;;11.98;100.00;99153.81;5072440;28;20230;-79
2022/05/25 01:54:50;;;;;;;5.88;2.92;;;;;;;11.93;100.00;99159.56;5072893;28;20277;-78
2022/05/25 01:57:21;;;;;;;3.67;2.70;;;;;;;11.84;100.00;99163.72;5072873;28;20185;-79
2022/05/25 01:59:48;;;;;;;5.75;2.72;;;;;;;11.79;100.00;99163.19;5073130;28;20193;-79
2022/05/25 02:05:03;;;;;;;2.35;2.10;;;;;;;11.81;100.00;99169.34;5072713;28;20179;-79
2022/05/25 02:07:44;;;;;;;3.05;2.30;;;;;;;11.48;100.00;99164.44;5072557;28;20188;-79
2022/05/25 02:10:41;;;;;;;3.05;2.17;;;;;;;11.51;100.00;99161.56;5072776;28;20188;-78
2022/05/25 02:13:21;;;;;;;2.20;1.92;;;;;;;11.29;100.00;99164.00;5072420;28;20546;-79
2022/05/25 02:16:00;;;;;;;5.47;2.67;;;;;;;11.11;100.00;99174.19;5072338;28;20189;-79
2022/05/25 02:18:35;;;;;;;4.00;2.28;;;;;;;11.24;100.00;99172.41;5072691;28;20604;-79
2022/05/25 02:21:08;;;;;;;3.42;2.53;;;;;;;11.07;100.00;99173.50;5072140;28;20641;-79
2022/05/25 02:23:43;;;;;;;6.68;2.30;;;;;;;11.14;100.00;99173.97;5072588;28;20515;-77
2022/05/25 02:26:13;;;;;;;5.10;2.58;;;;;;;11.07;100.00;99174.38;5072568;28;20188;-79
2022/05/25 02:28:44;;;;;;;3.08;2.00;;;;;;;10.96;100.00;99178.75;5072482;28;20679;-79
2022/05/25 02:31:15;;;;;;;2.38;1.92;;;;;;;10.98;100.00;99179.50;5072087;28;20189;-79
2022/05/25 02:33:48;;;;;;;5.10;2.30;;;;;;;11.16;100.00;99172.91;5072073;28;20205;-79
2022/05/25 02:36:16;;;;;;;5.82;2.20;;;;;;;11.30;100.00;99179.19;5071883;28;20187;-79
2022/05/25 02:38:44;;;;;;;3.53;2.60;;;;;;;11.03;100.00;99182.75;5072010;28;20200;-79
2022/05/25 02:41:15;;;;;;;2.58;2.38;;;;;;;11.03;100.00;99183.66;5070814;28;20195;-78
2022/05/25 02:43:41;;;;;;;4.78;2.65;;;;;;;10.85;100.00;99190.22;5071883;28;20213;-78
2022/05/25 02:46:09;;;;;;;3.85;2.83;;;;;;;10.59;100.00;99190.13;5072193;28;20200;-79
2022/05/25 02:48:37;;;;;;;5.03;2.58;;;;;;;10.63;100.00;99196.19;5072211;28;20638;-79
2022/05/25 02:51:05;;;;;;;7.00;2.22;;;;;;;10.56;100.00;99189.44;5071722;28;20228;-79
2022/05/25 02:53:32;;;;;;;2.90;2.47;;;;;;;10.63;100.00;99194.34;5070958;28;20204;-77
2022/05/25 02:55:58;;;;;;;4.05;2.50;;;;;;;10.75;100.00;99197.19;5072086;28;20658;-79
2022/05/25 02:58:25;;;;;;;5.15;2.28;;;;;;;10.64;100.00;99193.38;5072017;28;20647;-79
2022/05/25 03:00:52;;;;;;;4.15;2.20;;;;;;;10.61;100.00;99198.97;5071772;28;20185;-79
2022/05/25 03:03:19;;;;;;;3.05;2.05;;;;;;;10.48;100.00;99198.00;5071364;28;20192;-79
2022/05/25 03:05:45;;;;;;;4.57;2.35;;;;;;;10.58;100.00;99201.84;5071894;28;20204;-78
2022/05/25 03:08:13;;;;;;;3.47;2.50;;;;;;;10.48;100.00;99202.53;5071678;28;20199;-79
2022/05/25 03:10:41;;;;;;;4.38;2.70;;;;;;;10.41;100.00;99212.81;5071657;28;20181;-78
2022/05/25 03:13:09;;;;;;;3.08;2.58;;;;;;;10.50;100.00;99208.69;5071994;28;20225;-78
2022/05/25 03:15:36;;;;;;;3.58;2.80;;;;;;;10.58;100.00;99215.31;5071706;28;20200;-78
2022/05/25 03:18:03;;;;;;;3.10;2.72;;;;;;;10.56;100.00;99211.84;5071424;28;20880;-78
2022/05/25 03:20:31;;;;;;;4.60;2.50;;;;;;;10.70;100.00;99208.28;5071701;28;20247;-78
2022/05/25 03:22:59;;;;;;;3.88;2.38;;;;;;;10.53;100.00;99209.34;5072060;28;20822;-79
2022/05/25 03:25:27;;;;;;;5.70;2.35;;;;;;;10.50;100.00;99212.25;5071817;28;20630;-79
2022/05/25 03:27:53;;;;;;;3.90;2.47;;;;;;;10.37;100.00;99205.91;5071147;28;20673;-78
2022/05/25 03:30:21;;;;;;;5.28;3.28;;;;;;;10.37;100.00;99208.59;5071678;28;20567;-79
2022/05/25 03:32:47;;;;;;;3.15;2.85;;;;;;;10.35;100.00;99214.06;5071393;28;20227;-79
2022/05/25 03:35:15;;;;;;;3.78;2.63;;;;;;;10.23;100.00;99230.97;5071242;28;20191;-79
2022/05/25 03:37:42;;;;;;;6.43;3.15;;;;;;;10.16;100.00;99227.78;5071260;28;20196;-79
2022/05/25 03:40:12;;;;;;;7.80;3.17;;;;;;;10.20;100.00;99237.41;5071648;28;20185;-80
2022/05/25 03:42:42;;;;;;;4.43;2.50;;;;;;;10.29;100.00;99240.50;5071211;28;20398;-78
2022/05/25 03:45:10;;;;;;;7.38;2.83;;;;;;;10.43;100.00;99236.00;5071599;28;20547;-78
2022/05/25 03:47:37;;;;;;;6.32;3.50;;;;;;;10.50;100.00;99244.53;5071128;28;20621;-78
2022/05/25 03:50:04;;;;;;;7.43;3.05;;;;;;;10.60;100.00;99239.44;5071638;28;20200;-78
2022/05/25 03:52:30;;;;;;;6.88;2.70;;;;;;;10.55;100.00;99241.56;5071106;28;20255;-78
2022/05/25 03:54:57;;;;;;;5.13;2.70;;;;;;;10.46;100.00;99242.13;5071111;28;20263;-77
2022/05/25 03:57:24;;;;;;;4.30;2.88;;;;;;;10.53;100.00;99238.94;5071282;28;20200;-78
2022/05/25 03:59:52;;;;;;;5.55;2.92;;;;;;;10.66;100.00;99246.25;5071441;28;20635;-79
2022/05/25 04:02:18;;;;;;;6.10;2.90;;;;;;;10.98;100.00;99247.72;5071638;28;20185;-79
2022/05/25 04:04:45;;;;;;;4.97;2.58;;;;;;;11.04;100.00;99247.31;5072845;28;20195;-79
2022/05/25 04:07:12;;;;;;;4.53;2.40;;;;;;;10.76;100.00;99248.28;5074620;28;20196;-79
2022/05/25 04:09:39;;;;;;;3.70;2.80;;;;;;;10.83;100.00;99248.72;5074733;28;20188;-79
2022/05/25 04:12:08;;;;;;;3.20;2.45;;;;;;;10.84;100.00;99253.16;5075237;28;20698;-79
2022/05/25 04:14:34;;;;;;;3.13;2.75;;;;;;;10.66;100.00;99251.66;5074721;28;20191;-79
2022/05/25 04:17:02;;;;;;;3.88;2.40;;;;;;;10.44;100.00;99253.84;5074624;28;20730;-78
2022/05/25 04:19:30;;;;;;;4.60;2.60;;;;;;;10.37;100.00;99260.59;5075076;28;20191;-78
2022/05/25 04:21:57;;;;;;;6.65;2.55;;;;;;;10.39;100.00;99265.88;5074898;28;20185;-79
2022/05/25 04:24:23;;;;;;;3.70;2.88;;;;;;;10.53;100.00;99276.63;5077533;28;20547;-79
2022/05/25 04:26:50;;;;;;;9.23;2.85;;;;;;;10.55;100.00;99274.72;5090095;28;20192;-78
2022/05/25 04:29:16;;;;;;;5.57;2.70;;;;;;;10.72;100.00;99270.09;5094951;28;20185;-78
2022/05/25 04:31:43;;;;;;;5.32;3.17;;;;;;;10.80;100.00;99265.94;5094971;28;20291;-78
2022/05/25 04:34:13;;;;;;;6.68;3.00;;;;;;;10.71;100.00;99280.00;5094861;28;20621;-78
2022/05/25 04:36:40;;;;;;;4.90;2.90;;;;;;;10.96;100.00;99273.03;5094849;28;20649;-78
2022/05/25 04:39:07;;;;;;;4.00;2.90;;;;;;;11.26;100.00;99283.63;5094798;28;20719;-79
2022/05/25 04:41:35;;;;;;;3.75;3.35;;;;;;;11.21;100.00;99281.22;5094500;28;20271;-79
2022/05/25 04:44:03;;;;;;;6.05;2.97;;;;;;;11.11;100.00;99288.22;5094629;28;20489;-79
2022/05/25 04:46:29;;;;;;;4.18;3.30;;;;;;;11.26;100.00;99280.94;5094457;28;20280;-79
2022/05/25 04:48:57;;;;;;;3.90;3.00;;;;;;;11.32;100.00;99276.97;5079305;28;20200;-79
2022/05/25 04:51:25;;;;;;;5.32;3.55;;;;;;;11.50;100.00;99280.28;5063091;28;20734;-79
2022/05/25 04:53:51;;;;;;;4.18;2.95;;;;;;;11.68;100.00;99285.28;5054044;28;20216;-79
2022/05/25 04:59:03;;;;;;;4.95;4.55;;;;;;;11.90;100.00;99310.84;5094267;28;20195;-78
2022/05/25 05:01:30;;;;;;;7.30;3.67;;;;;;;12.02;100.00;99304.59;5076020;28;20200;-79
2022/05/25 05:03:57;;;;;;;8.05;4.00;;;;;;;12.16;100.00;99302.78;5075092;28;20288;-78
2022/05/25 05:06:25;;;;;;;9.38;4.25;;;;;;;12.16;100.00;99306.34;5075687;28;20640;-78
2022/05/25 05:08:51;;;;;;;5.85;3.83;;;;;;;12.21;100.00;99311.41;5073804;28;20200;-78
2022/05/25 05:11:19;;;;;;;6.20;3.30;;;;;;;12.20;100.00;99315.09;5074419;28;20200;-79
2022/05/25 05:13:47;;;;;;;7.32;3.30;;;;;;;12.29;100.00;99312.63;5073457;28;20196;-79
2022/05/25 05:16:16;;;;;;;4.55;3.35;;;;;;;12.36;100.00;99317.59;5073013;28;20665;-79
2022/05/25 05:18:43;;;;;;;5.45;4.03;;;;;;;12.46;100.00;99321.41;5074119;28;20280;-79
2022/05/25 05:21:11;;;;;;;10.30;4.30;;;;;;;12.33;100.00;99320.53;5073497;28;20196;-78
2022/05/25 05:23:39;;;;;;;4.68;3.20;;;;;;;12.27;100.00;99325.34;5073272;28;20199;-79
2022/05/25 05:26:06;;;;;;;7.82;4.00;;;;;;;12.22;100.00;99330.22;5073311;28;20205;-79
2022/05/25 05:28:37;;;;;;;7.93;3.97;;;;;;;12.47;100.00;99328.50;5077808;28;20549;-80
2022/05/25 05:31:10;;;;;;;6.35;4.60;;;;;;;12.55;100.00;99331.56;5074949;28;20308;-80
2022/05/25 05:33:38;;;;;;;9.40;3.55;;;;;;;12.89;100.00;99332.72;5073346;28;20558;-79
2022/05/25 05:36:18;;;;;;;10.35;6.78;;;;;;;12.91;100.00;99333.47;5072940;28;20269;-79
2022/05/25 05:38:51;;;;;;;9.07;4.95;;;;;;;13.09;100.00;99339.38;5073078;28;20193;-78
2022/05/25 05:41:21;;;;;;;9.02;5.72;;;;;;;13.33;100.00;99343.97;5072223;28;20177;-79
2022/05/25 05:43:48;;;;;;;7.78;4.88;;;;;;;13.18;100.00;99340.53;5061630;28;20194;-79
2022/05/25 05:46:15;;;;;;;14.40;5.65;;;;;;;13.27;100.00;99350.69;5072986;28;20201;-79
2022/05/25 05:48:42;;;;;;;5.22;4.70;;;;;;;13.26;100.00;99350.78;5071485;28;20550;-79
2022/05/25 05:51:11;;;;;;;6.65;4.70;;;;;;;13.54;100.00;99350.53;5068598;28;20225;-78
2022/05/25 05:53:40;;;;;;;9.13;4.20;;;;;;;13.63;100.00;99350.81;5071199;28;20267;-79
2022/05/25 05:56:09;;;;;;;6.70;5.05;;;;;;;13.71;100.00;99362.78;5070591;28;20210;-79
2022/05/25 05:58:35;;;;;;;10.23;4.88;;;;;;;13.78;100.00;99352.38;5072251;28;20625;-79
2022/05/25 06:01:02;;;;;;;11.15;5.00;;;;;;;13.83;100.00;99369.09;5071520;28;20208;-78
2022/05/25 06:03:29;;;;;;;9.38;5.40;;;;;;;13.94;100.00;99371.00;5071362;28;20229;-79
2022/05/25 06:05:56;;;;;;;10.77;5.70;;;;;;;14.12;100.00;99382.28;5071107;28;20257;-79
2022/05/25 06:08:24;;;;;;;4.60;3.97;;;;;;;14.24;100.00;99375.91;5068803;28;20206;-78
2022/05/25 06:10:51;;;;;;;8.73;5.13;;;;;;;14.25;100.00;99377.66;5070431;28;20612;-78
2022/05/25 06:13:19;;;;;;;7.32;5.13;;;;;;;14.36;100.00;99379.56;5067886;28;20209;-80
2022/05/25 06:21:19;;;;;;;6.40;4.78;;;;;;;14.74;100.00;99384.72;5071604;28;20738;-79
2022/05/25 06:23:46;;;;;;;6.50;5.15;;;;;;;14.96;100.00;99392.00;5070285;28;20221;-79
2022/05/25 06:26:14;;;;;;;7.15;4.80;;;;;;;15.21;100.00;99392.75;5070371;28;20653;-77
2022/05/25 06:28:42;;;;;;;10.05;4.78;;;;;;;15.35;99.26;99399.75;5069694;28;20284;-78
2022/05/25 06:31:09;;;;;;;5.95;4.20;;;;;;;15.46;97.61;99399.75;5070589;28;20659;-76
2022/05/25 06:33:37;;;;;;;5.85;4.80;;;;;;;15.59;94.27;99391.47;5066967;28;20216;-77
2022/05/25 06:36:16;;;;;;;11.45;4.75;;;;;;;15.39;95.85;99398.53;5062209;28;20196;-77
2022/05/25 06:38:43;;;;;;;6.80;4.40;;;;;;;15.27;97.68;99410.38;5051515;28;20588;-79
2022/05/25 06:41:09;;;;;;;8.00;4.88;;;;;;;15.51;95.53;99402.97;5051579;28;20292;-78
2022/05/25 06:43:36;;;;;;;5.60;4.22;;;;;;;15.34;93.66;99406.19;5063714;28;20200;-78
2022/05/25 06:46:07;;;;;;;9.73;4.50;;;;;;;15.62;92.63;99404.78;5071276;28;20219;-77
2022/05/25 06:48:33;;;;;;;8.07;4.38;;;;;;;15.90;88.87;99411.56;5054836;28;20206;-77
2022/05/25 06:51:09;;;;;;;6.07;3.58;;;;;;;15.84;88.40;99420.19;5060285;28;20240;-78
2022/05/25 06:53:36;;;;;;;4.55;3.08;;;;;;;15.41;84.25;99426.41;5055953;28;20216;-79
2022/05/25 06:56:03;;;;;;;6.57;3.45;;;;;;;15.34;86.22;99420.59;5058465;28;20214;-80
2022/05/25 06:58:29;;;;;;;5.47;3.35;;;;;;;15.51;83.27;99413.81;5071461;28;20608;-78
2022/05/25 07:00:56;;;;;;;4.32;2.72;;;;;;;15.81;79.35;99424.03;5069050;28;20667;-77
2022/05/25 07:03:24;;;;;;;3.25;1.90;;;;;;;15.68;78.57;99417.84;5071312;28;20202;-78
2022/05/25 07:05:50;;;;;;;6.28;2.20;;;;;;;15.14;84.51;99424.91;5070757;28;20196;-80
2022/05/25 07:08:17;;;;;;;5.55;2.65;;;;;;;15.50;83.90;99425.66;5071055;28;20206;-79
2022/05/25 07:10:45;;;;;;;5.43;3.40;;;;;;;15.76;84.02;99423.56;5071019;28;20204;-80
2022/05/25 07:13:12;;;;;;;4.22;2.50;;;;;;;15.92;81.98;99427.69;5070503;28;20236;-79
2022/05/25 07:15:38;;;;;;;7.00;2.70;;;;;;;15.94;82.37;99432.03;5070598;28;20189;-79
2022/05/25 07:18:05;;;;;;;5.15;2.97;;;;;;;15.85;84.55;99430.06;5071230;28;20521;-79
2022/05/25 07:20:33;;;;;;;7.10;3.42;;;;;;;15.99;84.82;99427.06;5071353;28;20616;-79
2022/05/25 07:23:00;;;;;;;5.95;3.35;;;;;;;16.03;83.47;99442.13;5070899;28;20195;-79
2022/05/25 07:25:27;;;;;;;5.60;2.97;;;;;;;15.65;84.54;99442.53;5076366;28;20184;-78
2022/05/25 07:27:53;;;;;;;4.63;2.65;;;;;;;16.12;82.50;99428.75;5090446;28;20294;-76
2022/05/25 07:30:20;;;;;;;5.00;2.30;;;;;;;15.86;84.02;99433.66;5090774;28;20195;-78
2022/05/25 07:32:48;;;;;;;4.90;2.92;;;;;;;16.08;82.88;99441.75;5071359;28;20192;-78
2022/05/25 07:35:17;;;;;;;8.63;3.38;;;;;;;16.34;81.10;99438.69;5070343;28;20683;-78
2022/05/25 07:37:50;;;;;;;5.70;2.72;;;;;;;16.74;78.21;99433.41;5071196;28;20185;-77
2022/05/25 07:40:21;;;;;;;4.25;3.13;;;;;;;16.87;76.41;99438.69;5073497;28;20192;-77
2022/05/25 07:42:55;;;;;;;5.80;3.25;;;;;;;16.92;74.95;99436.44;5074634;28;20614;-77
2022/05/25 07:45:23;;;;;;;5.95;3.40;;;;;;;16.57;77.86;99442.16;5075473;28;20223;-77
2022/05/25 07:47:53;;;;;;;6.18;2.63;;;;;;;16.71;76.74;99436.41;5075106;28;20195;-77
2022/05/25 07:50:20;;;;;;;8.20;3.08;;;;;;;16.90;76.18;99438.41;5075385;28;20188;-77
2022/05/25 07:52:51;;;;;;;7.30;3.58;;;;;;;17.24;74.23;99441.75;5074896;28;20717;-78
2022/05/25 07:55:18;;;;;;;4.20;2.53;;;;;;;17.35;73.09;99448.13;5074853;28;20201;-76
2022/05/25 07:57:45;;;;;;;4.20;2.22;;;;;;;17.09;74.02;99446.72;5075061;28;20552;-77
2022/05/25 08:00:14;;;;;;;5.30;2.40;;;;;;;17.45;72.22;99449.00;5075148;28;20535;-78
2022/05/25 08:05:44;;;;;;;3.78;2.70;;;;;;;17.28;72.16;99454.09;5074963;28;20235;-79
2022/05/25 08:08:15;;;;;;;4.03;2.30;;;;;;;18.06;69.08;99450.81;5075287;28;20192;-79
2022/05/25 08:10:43;;;;;;;3.97;2.47;;;;;;;17.44;69.41;99460.91;5074733;28;20647;-78
2022/05/25 08:13:17;;;;;;;4.60;2.60;;;;;;;17.85;68.06;99457.22;5074887;28;20542;-80
2022/05/25 08:15:44;;;;;;;3.38;2.20;;;;;;;17.22;71.33;99456.50;5074750;28;20197;-78
2022/05/25 08:18:11;;;;;;;5.60;1.90;;;;;;;17.41;70.99;99461.16;5074798;28;20189;-78
2022/05/25 08:20:38;;;;;;;5.90;3.30;;;;;;;17.39;72.08;99464.03;5074190;28;20200;-78
2022/05/25 08:23:06;;;;;;;2.60;2.20;;;;;;;17.38;71.99;99465.03;5059912;28;20646;-79
2022/05/25 08:25:34;;;;;;;3.08;1.85;;;;;;;18.06;67.68;99451.66;5053940;28;20232;-78
2022/05/25 08:28:00;;;;;;;3.08;2.10;;;;;;;18.41;66.72;99453.00;5058664;28;20225;-80
2022/05/25 08:30:28;;;;;;;3.58;2.40;;;;;;;18.61;65.39;99453.00;5073992;28;20221;-78
2022/05/25 08:32:55;;;;;;;4.28;2.72;;;;;;;18.52;64.37;99452.00;5073986;28;20646;-79
2022/05/25 08:35:22;;;;;;;6.30;2.72;;;;;;;19.13;60.68;99458.97;5073677;28;20255;-77
2022/05/25 08:37:48;;;;;;;3.50;2.00;;;;;;;19.32;58.84;99449.88;5073869;28;20205;-79
2022/05/25 08:40:20;;;;;;;6.00;1.98;;;;;;;19.37;58.58;99463.94;5073279;28;20211;-79
2022/05/25 08:42:53;;;;;;;2.92;1.48;;;;;;;18.63;61.67;99459.16;5074053;28;20197;-79
2022/05/25 08:45:21;;;;;;;2.80;1.25;;;;;;;18.25;61.17;99469.91;5073910;28;20290;-78
2022/05/25 08:47:53;;;;;;;3.47;1.60;;;;;;;18.35;62.29;99461.75;5060603;28;20203;-80
2022/05/25 08:50:20;;;;;;;1.95;1.00;;;;;;;18.40;60.58;99464.91;5056526;28;20196;-78
2022/05/25 08:52:47;;;;;;;2.67;1.38;;;;;;;18.01;61.35;99447.66;5059757;28;20240;-79
2022/05/25 08:55:27;;;;;;;2.08;1.00;;;;;;;18.23;60.11;99454.72;5062515;28;20219;-78
2022/05/25 08:57:58;;;;;;;3.63;2.22;;;;;;;18.11;60.60;99454.84;5061011;28;20247;-79
2022/05/25 09:00:25;;;;;;;4.38;1.30;;;;;;;17.91;62.79;99450.34;5053750;28;20188;-79
2022/05/25 09:03:00;;;;;;;1.98;1.45;;;;;;;18.43;60.07;99450.13;5053078;28;20205;-79
2022/05/25 09:05:34;;;;;;;2.25;1.10;;;;;;;18.42;59.10;99457.44;5051634;28;20197;-79
2022/05/25 09:08:13;;;;;;;2.60;1.10;;;;;;;19.02;55.85;99445.53;5058688;28;20268;-79
2022/05/25 09:10:45;;;;;;;2.15;1.40;;;;;;;19.10;55.75;99445.63;5073420;28;20655;-79
2022/05/25 09:13:17;;;;;;;1.88;1.33;;;;;;;19.53;52.94;99445.03;5073767;28;20186;-78
2022/05/25 09:18:36;;;;;;;2.05;1.00;;;;;;;18.72;56.61;99453.72;5053568;28;20664;-77
2022/05/25 09:21:05;;;;;;;2.78;1.45;;;;;;;18.62;56.77;99441.09;5053640;28;20187;-77
2022/05/25 09:23:32;;;;;;;2.45;1.30;;;;;;;18.36;58.09;99447.13;5068969;28;20287;-79
2022/05/25 09:26:00;;;;;;;2.42;1.00;;;;;;;18.53;55.91;99438.22;5073709;28;20621;-78
2022/05/25 09:28:34;;;;;;;2.53;1.10;;;;;;;18.66;54.67;99442.53;5062290;28;20206;-79
2022/05/25 09:31:03;;;;;;;5.50;1.38;;;;;;;18.54;55.56;99441.78;5057455;28;20195;-79
2022/05/25 09:33:36;;;;;;;2.40;1.95;;;;;;;18.92;54.23;99438.19;5058404;28;20219;-79
2022/05/25 09:36:09;;;;;;;1.70;1.10;;;;;;;19.42;52.24;99444.38;5062250;28;20221;-78
2022/05/25 09:38:44;;;;;;;2.47;1.40;;;;;;;19.59;51.05;99436.25;5073056;28;20193;-79
2022/05/25 09:41:13;;;;;;;2.13;1.30;;;;;;;20.04;48.66;99444.69;5060126;28;20682;-78
2022/05/25 09:43:43;;;;;;;2.08;1.08;;;;;;;20.03;46.11;99438.34;5053027;28;20228;-78
2022/05/25 09:46:18;;;;;;;1.50;1.05;;;;;;;20.59;44.55;99429.03;5055973;28;20195;-79
2022/05/25 09:48:50;;;;;;;4.68;1.55;;;;;;;20.59;45.15;99433.66;5056778;28;20196;-79
2022/05/25 09:51:25;;;;;;;2.37;1.20;;;;;;;19.40;48.23;99435.47;5053000;28;20720;-79
2022/05/25 09:53:54;;;;;;;2.22;0.90;;;;;;;19.38;45.54;99444.69;5059288;28;20465;-77
2022/05/25 09:56:26;;;;;;;3.17;1.08;;;;;;;19.57;45.08;99442.88;5053371;28;20181;-79
2022/05/25 09:58:59;;;;;;;4.20;0.90;;;;;;;20.12;43.43;99442.88;5053222;28;20185;-79
2022/05/25 10:01:31;;;;;;;2.75;1.25;;;;;;;19.90;45.04;99441.47;5069740;28;20206;-78
2022/05/25 10:04:01;;;;;;;2.97;1.05;;;;;;;20.03;45.81;99438.34;5072974;28;20185;-78
2022/05/25 10:06:49;;;;;;;1.70;1.15;;;;;;;20.80;43.90;99438.78;5065300;28;20250;-79
2022/05/25 10:09:19;;;;;;;2.20;1.02;;;;;;;20.91;43.03;99444.00;5068352;28;20189;-76
2022/05/25 10:11:48;;;;;;;1.55;1.10;;;;;;;20.89;41.80;99440.56;5053162;28;20250;-78
2022/05/25 10:14:22;;;;;;;1.90;1.00;;;;;;;20.87;40.89;99444.47;5065454;28;20209;-78
2022/05/25 10:16:49;;;;;;;2.17;1.37;;;;;;;21.01;41.58;99444.75;5071467;28;20441;-80
2022/05/25 10:19:18;;;;;;;1.53;1.10;;;;;;;22.08;40.59;99439.84;5060363;28;20874;-81
2022/05/25 10:21:49;;;;;;;2.70;1.37;;;;;;;22.67;40.18;99435.16;5069428;28;20451;-79
2022/05/25 10:24:22;;;;;;;3.63;3.10;;;;;;;22.19;41.16;99433.19;5052414;28;20921;-79
2022/05/25 10:26:51;;;;;;;1.67;0.90;;;;;;;20.53;43.21;99442.44;5052522;28;20432;-79
2022/05/25 10:37:57;;;;;;;1.73;1.10;;;;;;;20.27;45.93;99445.09;5067555;28;20488;-80
2022/05/25 10:40:24;;;;;;;2.10;1.30;;;;;;;20.33;45.02;99444.50;5082973;28;20530;-80
2022/05/25 10:42:57;;;;;;;2.40;1.40;;;;;;;20.39;44.28;99439.22;5065993;28;20448;-79
2022/05/25 10:45:34;;;;;;;1.90;1.27;;;;;;;20.33;44.59;99439.03;5055463;28;20451;-79
2022/05/25 10:48:08;;;;;;;2.40;1.10;;;;;;;20.32;44.79;99443.63;5062598;28;20430;-79
2022/05/25 10:50:43;;;;;;;3.00;1.00;;;;;;;19.96;44.74;99446.28;5061249;28;20523;-80
2022/05/25 10:53:23;;;;;;;1.50;1.20;;;;;;;19.40;46.78;99460.06;5051725;28;20438;-79
2022/05/25 10:55:58;;;;;;;2.70;1.10;;;;;;;19.34;46.00;99446.00;5069615;28;20603;-81
2022/05/25 10:58:58;;;;;;;1.90;1.70;;;;;;;19.56;45.96;99441.19;5068121;28;20199;-82
2022/05/25 11:01:40;;;;;;;1.67;1.30;;;;;;;19.70;45.71;99454.38;5043772;28;20452;-81
2022/05/25 11:04:23;;;;;;;1.60;1.20;;;;;;;19.41;46.33;99451.72;5066964;28;20436;-81
2022/05/25 11:07:03;;;;;;;5.50;1.20;;;;;;;19.65;46.36;99448.47;5071452;28;20930;-80
2022/05/25 11:09:52;;;;;;;2.05;0.80;;;;;;;19.76;45.17;99448.31;5051631;28;21006;-81
2022/05/25 11:12:31;;;;;;;2.23;1.20;;;;;;;20.44;43.92;99443.38;5051801;28;20211;-81
2022/05/25 11:15:10;;;;;;;3.07;1.47;;;;;;;20.33;43.60;99444.50;5050837;28;20459;-79
2022/05/25 11:17:53;;;;;;;1.83;0.90;;;;;;;20.48;43.21;99453.84;5051091;28;20450;-80
2022/05/25 11:20:27;;;;;;;2.63;0.90;;;;;;;20.81;42.31;99454.19;5060881;28;20437;-80
2022/05/25 11:23:10;;;;;;;5.83;1.10;;;;;;;20.99;42.30;99452.28;5060032;28;20447;-81
2022/05/25 11:26:00;;;;;;;3.27;1.40;;;;;;;20.71;42.83;99445.19;5051347;28;20450;-79
2022/05/25 11:28:42;;;;;;;3.00;1.00;;;;;;;21.11;41.65;99452.88;5060037;28;20455;-80
2022/05/25 11:31:20;;;;;;;2.50;0.87;;;;;;;20.87;40.71;99448.09;5070507;28;20523;-79
2022/05/25 11:34:20;;;;;;;1.30;0.83;;;;;;;20.84;42.04;99451.13;5071270;28;20435;-81
2022/05/25 11:37:01;;;;;;;1.90;1.00;;;;;;;21.15;41.82;99456.16;5071055;28;20427;-80
2022/05/25 11:39:37;;;;;;;3.40;1.27;;;;;;;21.75;41.18;99447.94;5071174;28;20433;-80
2022/05/25 11:42:21;;;;;;;3.73;1.17;;;;;;;20.88;42.56;99444.31;5071050;28;20439;-81
2022/05/25 11:45:03;;;;;;;2.87;1.23;;;;;;;21.22;42.36;99440.78;5071031;28;20419;-80
2022/05/25 11:47:46;;;;;;;1.63;1.00;;;;;;;21.29;41.18;99435.53;5070344;28;20530;-79
2022/05/25 11:50:25;;;;;;;3.93;1.10;;;;;;;21.58;40.20;99429.72;5069827;28;20772;-81
2022/05/25 11:53:12;;;;;;;3.00;1.00;;;;;;;20.67;42.06;99438.31;5050888;28;20518;-80
2022/05/25 11:55:48;;;;;;;1.87;1.00;;;;;;;20.94;42.52;99445.53;5060114;28;20479;-80
2022/05/25 11:58:28;;;;;;;2.60;0.97;;;;;;;20.41;43.74;99444.56;5070736;28;20436;-81
2022/05/25 12:01:02;;;;;;;3.17;1.33;;;;;;;20.92;43.50;99448.47;5071479;28;20804;-81
2022/05/25 12:04:14;;;;;;;3.43;1.40;;;;;;;21.03;43.05;99448.19;5070104;28;20456;-80
2022/05/25 12:06:57;;;;;;;1.63;1.20;;;;;;;21.20;41.21;99451.91;5071214;28;20801;-80
2022/05/25 12:09:35;;;;;;;2.33;1.30;;;;;;;21.03;41.78;99442.72;5070849;28;20968;-84
2022/05/25 12:12:11;;;;;;;3.87;1.40;;;;;;;21.24;41.68;99441.50;5055548;28;20499;-80